Time;durP1;ratioP1;P1;durP2;ratioP2;P2;SDS_P1;SDS_P2;PMS_P1;PMS_P2;Temp;Humidity;BMP_temperature;BMP_pressure;BME280_temperature;BME280_humidity;BME280_pressure;Samples;Min_cycle;Max_cycle;Signal;HPM_P1;HPM_P2
2023/03/30 00:01:13;;;;;;;1.13;0.80;;;;;;;;;;5003691;28;87882;-50
2023/03/30 00:03:42;;;;;;;1.70;1.20;;;;;;;;;;5003428;28;87639;-50
2023/03/30 00:06:13;;;;;;;4.67;0.90;;;;;;;;;;5003910;28;87026;-50
2023/03/30 00:08:41;;;;;;;2.57;0.80;;;;;;;;;;5003712;28;86864;-50
2023/03/30 00:11:10;;;;;;;2.00;1.30;;;;;;;;;;5003543;28;88743;-50
2023/03/30 00:13:40;;;;;;;1.60;1.00;;;;;;;;;;5003666;28;87148;-50
2023/03/30 00:16:09;;;;;;;1.47;1.00;;;;;;;;;;5003026;28;86916;-50
2023/03/30 00:18:38;;;;;;;1.07;0.97;;;;;;;;;;5003115;28;89692;-50
2023/03/30 00:21:08;;;;;;;1.47;0.90;;;;;;;;;;5003485;28;88751;-50
2023/03/30 00:23:36;;;;;;;1.30;1.20;;;;;;;;;;5003580;28;87085;-50
2023/03/30 00:26:06;;;;;;;0.33;0.33;;;;;;;;;;5003197;28;87022;-50
2023/03/30 00:28:34;;;;;;;1.53;1.23;;;;;;;;;;5003283;28;88308;-50
2023/03/30 00:31:04;;;;;;;7.63;1.20;;;;;;;;;;5003294;28;88927;-50
2023/03/30 00:33:32;;;;;;;1.57;1.00;;;;;;;;;;4996400;28;87846;-50
2023/03/30 00:36:14;;;;;;;1.57;0.80;;;;;;;;;;5003133;28;86338;-50
2023/03/30 00:38:44;;;;;;;1.17;1.00;;;;;;;;;;5003166;28;89271;-50
2023/03/30 00:41:13;;;;;;;1.27;0.80;;;;;;;;;;5002520;28;88898;-50
2023/03/30 00:43:57;;;;;;;1.77;1.13;;;;;;;;;;5002746;28;88132;-50
2023/03/30 00:46:26;;;;;;;3.27;0.90;;;;;;;;;;4992232;28;87029;-50
2023/03/30 00:48:56;;;;;;;1.70;1.13;;;;;;;;;;5002849;28;89181;-50
2023/03/30 00:51:25;;;;;;;1.53;0.70;;;;;;;;;;4994385;28;87738;-50
2023/03/30 00:53:53;;;;;;;1.93;0.90;;;;;;;;;;5003422;28;87690;-50
2023/03/30 00:56:22;;;;;;;1.07;1.00;;;;;;;;;;5002512;28;89180;-50
2023/03/30 00:58:51;;;;;;;0.73;0.53;;;;;;;;;;5002631;28;89230;-50
2023/03/30 01:01:27;;;;;;;1.13;0.90;;;;;;;;;;5002961;28;87911;-50
2023/03/30 01:03:58;;;;;;;1.20;1.10;;;;;;;;;;4991885;28;86875;-50
2023/03/30 01:06:28;;;;;;;1.73;1.00;;;;;;;;;;5002810;28;87085;-50
2023/03/30 01:08:57;;;;;;;2.00;1.33;;;;;;;;;;5001851;28;90043;-50
2023/03/30 01:11:26;;;;;;;0.93;0.90;;;;;;;;;;5001951;28;89919;-50
2023/03/30 01:13:56;;;;;;;0.63;0.63;;;;;;;;;;4982681;28;87069;-50
2023/03/30 01:16:26;;;;;;;1.50;1.17;;;;;;;;;;4989799;28;87076;-50
2023/03/30 01:18:56;;;;;;;2.50;1.17;;;;;;;;;;5002714;28;89296;-50
2023/03/30 01:21:38;;;;;;;1.77;1.20;;;;;;;;;;5002834;28;88907;-50
2023/03/30 01:24:26;;;;;;;1.97;1.13;;;;;;;;;;5002956;28;87922;-50
2023/03/30 01:26:55;;;;;;;1.13;1.03;;;;;;;;;;4994830;28;86260;-51
2023/03/30 01:29:26;;;;;;;1.30;1.20;;;;;;;;;;4997007;28;89141;-50
2023/03/30 01:32:09;;;;;;;1.93;0.90;;;;;;;;;;5002561;28;88898;-50
2023/03/30 01:34:46;;;;;;;2.13;0.90;;;;;;;;;;4990463;28;88847;-50
2023/03/30 01:37:20;;;;;;;0.97;0.90;;;;;;;;;;5002359;28;87526;-50
2023/03/30 01:39:52;;;;;;;0.70;0.70;;;;;;;;;;5002064;28;89167;-50
2023/03/30 01:42:22;;;;;;;1.83;1.10;;;;;;;;;;4986774;28;87759;-50
2023/03/30 01:44:52;;;;;;;1.30;0.90;;;;;;;;;;4966086;28;87117;-50
2023/03/30 01:47:22;;;;;;;1.63;1.30;;;;;;;;;;4976114;28;86962;-50
2023/03/30 01:49:54;;;;;;;1.90;1.07;;;;;;;;;;4973373;28;88050;-51
2023/03/30 01:52:22;;;;;;;0.90;0.90;;;;;;;;;;4975993;28;88501;-50
2023/03/30 01:54:55;;;;;;;1.23;1.13;;;;;;;;;;4966531;28;87000;-50
2023/03/30 01:57:24;;;;;;;1.03;0.83;;;;;;;;;;4985005;28;86994;-50
2023/03/30 01:59:54;;;;;;;1.23;0.80;;;;;;;;;;4979870;28;90189;-50
2023/03/30 02:02:22;;;;;;;1.17;1.00;;;;;;;;;;4977603;28;88763;-50
2023/03/30 02:04:52;;;;;;;0.90;0.80;;;;;;;;;;4975490;28;87087;-50
2023/03/30 02:07:22;;;;;;;1.03;0.93;;;;;;;;;;4977281;28;87052;-50
2023/03/30 02:09:50;;;;;;;2.07;1.40;;;;;;;;;;4980765;28;88247;-50
2023/03/30 02:12:20;;;;;;;0.83;0.83;;;;;;;;;;4970576;28;87774;-50
2023/03/30 02:14:48;;;;;;;1.97;1.30;;;;;;;;;;4963270;28;87055;-50
2023/03/30 02:17:17;;;;;;;1.83;1.43;;;;;;;;;;4977372;28;86216;-50
2023/03/30 02:19:46;;;;;;;2.53;1.53;;;;;;;;;;4981352;28;88115;-50
2023/03/30 02:22:15;;;;;;;2.17;1.33;;;;;;;;;;4977728;28;89030;-50
2023/03/30 02:24:43;;;;;;;1.60;1.10;;;;;;;;;;4972845;28;87901;-50
2023/03/30 02:27:11;;;;;;;1.33;1.03;;;;;;;;;;4973985;28;87001;-50
2023/03/30 02:29:41;;;;;;;1.70;0.87;;;;;;;;;;4989826;28;88365;-50
2023/03/30 02:32:12;;;;;;;1.43;1.13;;;;;;;;;;4970713;28;88948;-50
2023/03/30 02:34:45;;;;;;;1.73;1.30;;;;;;;;;;4971550;28;87107;-50
2023/03/30 02:37:18;;;;;;;1.43;1.33;;;;;;;;;;4977803;28;88236;-50
2023/03/30 02:39:49;;;;;;;0.70;0.70;;;;;;;;;;4974779;28;88991;-50
2023/03/30 02:42:22;;;;;;;1.23;1.10;;;;;;;;;;4990039;28;87867;-50
2023/03/30 02:44:53;;;;;;;1.80;1.10;;;;;;;;;;5001961;28;86956;-50
2023/03/30 02:47:22;;;;;;;1.00;0.80;;;;;;;;;;5002016;28;87086;-50
2023/03/30 02:49:55;;;;;;;0.70;0.70;;;;;;;;;;5000453;28;88891;-50
2023/03/30 02:52:32;;;;;;;1.23;0.93;;;;;;;;;;5000766;28;89643;-50
2023/03/30 02:55:03;;;;;;;1.17;0.87;;;;;;;;;;5001627;28;87062;-50
2023/03/30 02:57:33;;;;;;;0.93;0.87;;;;;;;;;;4998611;28;86965;-50
2023/03/30 03:00:07;;;;;;;1.70;1.37;;;;;;;;;;5000178;28;88044;-50
2023/03/30 03:02:36;;;;;;;1.27;0.80;;;;;;;;;;5001081;28;87910;-50
2023/03/30 03:05:04;;;;;;;1.67;1.47;;;;;;;;;;5000835;28;87013;-50
2023/03/30 03:07:33;;;;;;;1.37;0.90;;;;;;;;;;5001771;28;86300;-50
2023/03/30 03:10:01;;;;;;;1.20;0.80;;;;;;;;;;5002937;28;89026;-50
2023/03/30 03:12:29;;;;;;;1.13;0.93;;;;;;;;;;5004183;28;87297;-50
2023/03/30 03:15:00;;;;;;;1.33;1.13;;;;;;;;;;5004767;28;87987;-50
2023/03/30 03:17:33;;;;;;;1.40;1.10;;;;;;;;;;5004691;28;87160;-51
2023/03/30 03:20:02;;;;;;;0.77;0.77;;;;;;;;;;5004816;28;88009;-51
2023/03/30 03:22:31;;;;;;;2.77;1.07;;;;;;;;;;5004931;28;88793;-50
2023/03/30 03:25:01;;;;;;;0.87;0.80;;;;;;;;;;5005195;28;87036;-51
2023/03/30 03:27:29;;;;;;;1.20;1.10;;;;;;;;;;5003790;28;87054;-50
2023/03/30 03:29:57;;;;;;;1.27;1.00;;;;;;;;;;5003777;28;88152;-50
2023/03/30 03:32:26;;;;;;;1.13;0.80;;;;;;;;;;5005257;28;88917;-50
2023/03/30 03:34:55;;;;;;;0.93;0.80;;;;;;;;;;5004950;28;86965;-50
2023/03/30 03:37:24;;;;;;;1.87;1.00;;;;;;;;;;5004836;28;86994;-50
2023/03/30 03:39:52;;;;;;;0.97;0.90;;;;;;;;;;5003932;28;90325;-50
2023/03/30 03:42:21;;;;;;;0.97;0.97;;;;;;;;;;5004030;28;88581;-50
2023/03/30 03:44:49;;;;;;;0.70;0.70;;;;;;;;;;5003868;28;86987;-50
2023/03/30 03:47:17;;;;;;;1.03;1.03;;;;;;;;;;5003806;28;87017;-50
2023/03/30 03:49:46;;;;;;;0.93;0.73;;;;;;;;;;5004299;28;89210;-50
2023/03/30 03:52:15;;;;;;;0.77;0.77;;;;;;;;;;5003011;28;87851;-50
2023/03/30 03:54:44;;;;;;;2.63;1.30;;;;;;;;;;5004653;28;86926;-50
2023/03/30 03:57:12;;;;;;;1.57;0.77;;;;;;;;;;5010483;28;86358;-51
2023/03/30 03:59:40;;;;;;;2.10;0.90;;;;;;;;;;5003417;28;89250;-50
2023/03/30 04:02:09;;;;;;;0.63;0.63;;;;;;;;;;5002569;28;88833;-51
2023/03/30 04:04:37;;;;;;;1.50;1.07;;;;;;;;;;5003244;28;88151;-50
2023/03/30 04:07:05;;;;;;;0.70;0.70;;;;;;;;;;5003727;28;86965;-50
2023/03/30 04:09:35;;;;;;;1.73;0.93;;;;;;;;;;5003763;28;88804;-50
2023/03/30 04:12:03;;;;;;;0.83;0.83;;;;;;;;;;5003484;28;87814;-50
2023/03/30 04:14:32;;;;;;;1.00;0.70;;;;;;;;;;5003751;28;87051;-50
2023/03/30 04:17:00;;;;;;;1.03;0.63;;;;;;;;;;4997980;28;88222;-51
2023/03/30 04:19:30;;;;;;;0.93;0.80;;;;;;;;;;5002902;28;88285;-51
2023/03/30 04:21:58;;;;;;;0.70;0.70;;;;;;;;;;5002356;28;89067;-51
2023/03/30 04:24:28;;;;;;;0.73;0.73;;;;;;;;;;4993821;28;87325;-51
2023/03/30 04:26:58;;;;;;;2.77;0.70;;;;;;;;;;4991900;28;87090;-50
2023/03/30 04:29:28;;;;;;;2.10;0.97;;;;;;;;;;5002252;28;90268;-50
2023/03/30 04:32:01;;;;;;;1.63;0.97;;;;;;;;;;5002799;28;88867;-50
2023/03/30 04:34:30;;;;;;;0.77;0.77;;;;;;;;;;5003494;28;87102;-50
2023/03/30 04:36:58;;;;;;;0.90;0.90;;;;;;;;;;5003877;28;86891;-50
2023/03/30 04:39:29;;;;;;;0.93;0.93;;;;;;;;;;5003009;28;89183;-51
2023/03/30 04:42:01;;;;;;;1.30;0.87;;;;;;;;;;5003288;28;89194;-50
2023/03/30 04:44:30;;;;;;;0.73;0.73;;;;;;;;;;4991699;28;87053;-50
2023/03/30 04:46:58;;;;;;;0.90;0.90;;;;;;;;;;5003102;28;86184;-50
2023/03/30 04:49:26;;;;;;;1.37;0.80;;;;;;;;;;5001497;28;89171;-50
2023/03/30 04:51:55;;;;;;;0.80;0.80;;;;;;;;;;5002971;28;88922;-50
2023/03/30 04:54:23;;;;;;;4.13;0.93;;;;;;;;;;5000412;28;88066;-50
2023/03/30 04:56:51;;;;;;;0.83;0.70;;;;;;;;;;5004436;28;86924;-50
2023/03/30 04:59:21;;;;;;;1.33;1.13;;;;;;;;;;5003287;28;89065;-50
2023/03/30 05:01:50;;;;;;;2.00;0.83;;;;;;;;;;4998248;28;89420;-51
2023/03/30 05:04:18;;;;;;;1.10;1.00;;;;;;;;;;5002434;28;88249;-50
2023/03/30 05:06:48;;;;;;;1.90;0.90;;;;;;;;;;5002842;28;86959;-50
2023/03/30 05:09:17;;;;;;;2.20;0.67;;;;;;;;;;5002483;28;89361;-50
2023/03/30 05:11:45;;;;;;;1.07;0.93;;;;;;;;;;5002974;28;88898;-51
2023/03/30 05:14:14;;;;;;;0.80;0.70;;;;;;;;;;4997249;28;87721;-50
2023/03/30 05:16:44;;;;;;;1.07;0.97;;;;;;;;;;5000617;28;87327;-51
2023/03/30 05:19:12;;;;;;;1.77;0.97;;;;;;;;;;4998801;28;88845;-50
2023/03/30 05:21:41;;;;;;;1.87;0.70;;;;;;;;;;5002803;28;88698;-50
2023/03/30 05:24:09;;;;;;;1.83;0.97;;;;;;;;;;5002445;28;86869;-50
2023/03/30 05:26:37;;;;;;;1.87;0.77;;;;;;;;;;5000438;28;87069;-50
2023/03/30 05:29:06;;;;;;;2.20;1.03;;;;;;;;;;5002032;28;89220;-50
2023/03/30 05:31:34;;;;;;;1.43;0.77;;;;;;;;;;5000904;28;88798;-50
2023/03/30 05:34:04;;;;;;;0.70;0.70;;;;;;;;;;4989702;28;87266;-50
2023/03/30 05:36:34;;;;;;;1.80;0.97;;;;;;;;;;5001542;28;86400;-50
2023/03/30 05:39:03;;;;;;;1.23;0.67;;;;;;;;;;5001672;28;88084;-50
2023/03/30 05:41:32;;;;;;;0.90;0.90;;;;;;;;;;4993107;28;87786;-50
2023/03/30 05:44:01;;;;;;;1.90;1.10;;;;;;;;;;4995452;28;87863;-50
2023/03/30 05:46:29;;;;;;;1.63;1.23;;;;;;;;;;4998183;28;87025;-50
2023/03/30 05:48:58;;;;;;;0.83;0.83;;;;;;;;;;4998755;28;88860;-50
2023/03/30 05:51:27;;;;;;;0.63;0.63;;;;;;;;;;5001154;28;88875;-50
2023/03/30 05:53:56;;;;;;;1.50;1.17;;;;;;;;;;4987265;28;87153;-50
2023/03/30 05:56:24;;;;;;;1.13;0.80;;;;;;;;;;4996268;28;87053;-50
2023/03/30 05:58:52;;;;;;;1.30;0.80;;;;;;;;;;5002593;28;88265;-49
2023/03/30 06:01:21;;;;;;;1.50;0.90;;;;;;;;;;4998046;28;89051;-51
2023/03/30 06:03:49;;;;;;;1.37;0.70;;;;;;;;;;4991521;28;87011;-51
2023/03/30 06:06:17;;;;;;;4.50;0.80;;;;;;;;;;4994711;28;87910;-51
2023/03/30 06:08:48;;;;;;;1.33;0.80;;;;;;;;;;4998991;28;90190;-51
2023/03/30 06:11:16;;;;;;;1.47;1.00;;;;;;;;;;5001512;28;88506;-51
2023/03/30 06:13:44;;;;;;;1.23;0.90;;;;;;;;;;4999580;28;88583;-50
2023/03/30 06:16:13;;;;;;;0.90;0.70;;;;;;;;;;4998389;28;87049;-50
2023/03/30 06:18:41;;;;;;;1.20;1.10;;;;;;;;;;4999985;28;88180;-53
2023/03/30 06:21:10;;;;;;;1.50;0.80;;;;;;;;;;5000770;28;87818;-52
2023/03/30 06:23:39;;;;;;;1.83;0.97;;;;;;;;;;5001232;28;87163;-52
2023/03/30 06:26:10;;;;;;;0.63;0.63;;;;;;;;;;4999240;28;86299;-52
2023/03/30 06:28:38;;;;;;;1.07;0.43;;;;;;;;;;4999383;28;89307;-52
2023/03/30 06:31:10;;;;;;;0.77;0.77;;;;;;;;;;4999165;28;88889;-53
2023/03/30 06:33:38;;;;;;;2.33;0.80;;;;;;;;;;4990652;28;87857;-52
2023/03/30 06:36:10;;;;;;;0.50;0.50;;;;;;;;;;4983149;28;87021;-52
2023/03/30 06:38:40;;;;;;;0.60;0.60;;;;;;;;;;4987669;28;88052;-52
2023/03/30 06:41:11;;;;;;;2.47;0.90;;;;;;;;;;4984602;28;87880;-52
2023/03/30 06:43:39;;;;;;;0.73;0.73;;;;;;;;;;4982823;28;88265;-52
2023/03/30 06:46:08;;;;;;;4.43;0.87;;;;;;;;;;4982627;28;87060;-53
2023/03/30 06:48:37;;;;;;;1.20;0.83;;;;;;;;;;4992784;28;87051;-52
2023/03/30 06:51:05;;;;;;;1.00;0.47;;;;;;;;;;5001084;28;88971;-52
2023/03/30 06:53:33;;;;;;;1.77;0.77;;;;;;;;;;4994378;28;86976;-52
2023/03/30 06:56:02;;;;;;;0.97;0.60;;;;;;;;;;4993604;28;87055;-52
2023/03/30 06:58:33;;;;;;;1.37;0.77;;;;;;;;;;4990642;28;87802;-52
2023/03/30 07:01:09;;;;;;;0.63;0.63;;;;;;;;;;4987469;28;88737;-52
2023/03/30 07:03:37;;;;;;;0.80;0.60;;;;;;;;;;4986029;28;87017;-52
2023/03/30 07:06:06;;;;;;;1.70;0.70;;;;;;;;;;4989668;28;87535;-51
2023/03/30 07:08:35;;;;;;;1.97;0.90;;;;;;;;;;4990119;28;87965;-51
2023/03/30 07:11:03;;;;;;;1.30;0.80;;;;;;;;;;4994303;28;87905;-51
2023/03/30 07:13:34;;;;;;;2.40;1.17;;;;;;;;;;4984588;28;87161;-51
2023/03/30 07:16:02;;;;;;;1.30;0.40;;;;;;;;;;4997869;28;86331;-51
2023/03/30 07:18:31;;;;;;;1.27;0.90;;;;;;;;;;4998572;28;89128;-51
2023/03/30 07:20:59;;;;;;;0.70;0.60;;;;;;;;;;4989282;28;88858;-51
2023/03/30 07:23:28;;;;;;;1.47;1.17;;;;;;;;;;4993202;28;88043;-51
2023/03/30 07:25:56;;;;;;;0.70;0.57;;;;;;;;;;4995909;28;87853;-52
2023/03/30 07:28:24;;;;;;;1.03;0.70;;;;;;;;;;5009462;28;89192;-52
2023/03/30 07:30:54;;;;;;;0.50;0.50;;;;;;;;;;4999523;28;87495;-50
2023/03/30 07:33:23;;;;;;;2.73;0.83;;;;;;;;;;5001174;28;87020;-50
2023/03/30 07:35:52;;;;;;;1.97;0.90;;;;;;;;;;5000398;28;87019;-50
2023/03/30 07:38:20;;;;;;;1.13;0.47;;;;;;;;;;4998077;28;88249;-50
2023/03/30 07:40:48;;;;;;;0.97;0.73;;;;;;;;;;4987093;28;89006;-50
2023/03/30 07:43:17;;;;;;;0.67;0.47;;;;;;;;;;4965085;28;88526;-50
2023/03/30 07:45:45;;;;;;;0.37;0.37;;;;;;;;;;4974689;28;86996;-50
2023/03/30 07:48:15;;;;;;;1.73;0.63;;;;;;;;;;4965431;28;90194;-50
2023/03/30 07:50:43;;;;;;;1.27;0.60;;;;;;;;;;4974401;28;88672;-50
2023/03/30 07:53:11;;;;;;;1.40;0.60;;;;;;;;;;4976354;28;87011;-50
2023/03/30 07:55:40;;;;;;;2.57;0.50;;;;;;;;;;4980968;28;87061;-50
2023/03/30 07:58:08;;;;;;;0.40;0.40;;;;;;;;;;4977420;28;89063;-50
2023/03/30 08:00:37;;;;;;;3.43;0.77;;;;;;;;;;4970899;28;88907;-49
2023/03/30 08:03:05;;;;;;;2.60;0.70;;;;;;;;;;4974449;28;87438;-50
2023/03/30 08:05:35;;;;;;;0.57;0.40;;;;;;;;;;4977331;28;86358;-50
2023/03/30 08:08:03;;;;;;;0.57;0.50;;;;;;;;;;4976061;28;88151;-50
2023/03/30 08:10:31;;;;;;;0.60;0.53;;;;;;;;;;4981643;28;87832;-50
2023/03/30 08:13:01;;;;;;;2.47;0.80;;;;;;;;;;4981859;28;88400;-50
2023/03/30 08:15:29;;;;;;;1.10;0.83;;;;;;;;;;5000309;28;87047;-50
2023/03/30 08:18:02;;;;;;;1.90;0.93;;;;;;;;;;5003448;28;88326;-50
2023/03/30 08:20:32;;;;;;;0.87;0.57;;;;;;;;;;5003566;28;87876;-50
2023/03/30 08:23:01;;;;;;;1.80;0.80;;;;;;;;;;5003272;28;86932;-50
2023/03/30 08:25:30;;;;;;;0.83;0.70;;;;;;;;;;4983598;28;87088;-50
2023/03/30 08:27:58;;;;;;;1.50;0.73;;;;;;;;;;4983438;28;86935;-50
2023/03/30 08:30:27;;;;;;;1.43;0.77;;;;;;;;;;4984376;28;88890;-50
2023/03/30 08:32:55;;;;;;;1.17;0.90;;;;;;;;;;4984144;28;86931;-50
2023/03/30 08:35:24;;;;;;;1.80;0.57;;;;;;;;;;4983304;28;86919;-50
2023/03/30 08:37:52;;;;;;;2.10;0.70;;;;;;;;;;4982979;28;90283;-50
2023/03/30 08:40:22;;;;;;;1.07;0.57;;;;;;;;;;4995665;28;88805;-50
2023/03/30 08:42:55;;;;;;;2.03;0.77;;;;;;;;;;4998260;28;87046;-50
2023/03/30 08:45:23;;;;;;;1.80;0.67;;;;;;;;;;4997141;28;86999;-50
2023/03/30 08:47:52;;;;;;;1.00;0.60;;;;;;;;;;5003569;28;86981;-50
2023/03/30 08:50:23;;;;;;;1.43;0.40;;;;;;;;;;4996704;28;88779;-50
2023/03/30 08:52:51;;;;;;;1.60;0.60;;;;;;;;;;5003887;28;86989;-50
2023/03/30 08:55:23;;;;;;;1.23;1.07;;;;;;;;;;5003944;28;86294;-50
2023/03/30 08:57:52;;;;;;;0.97;0.70;;;;;;;;;;5003238;28;88123;-50
2023/03/30 09:00:26;;;;;;;0.83;0.40;;;;;;;;;;5002955;28;87662;-50
2023/03/30 09:02:56;;;;;;;0.83;0.53;;;;;;;;;;5002860;28;88062;-50
2023/03/30 09:05:25;;;;;;;2.87;1.07;;;;;;;;;;5002592;28;87063;-50
2023/03/30 09:07:56;;;;;;;4.60;0.83;;;;;;;;;;5002406;28;87935;-50
2023/03/30 09:10:25;;;;;;;1.23;0.53;;;;;;;;;;5003042;28;87768;-50
2023/03/30 09:12:55;;;;;;;0.60;0.60;;;;;;;;;;5003142;28;88104;-50
2023/03/30 09:15:26;;;;;;;1.43;0.40;;;;;;;;;;5003085;28;86968;-50
2023/03/30 09:17:59;;;;;;;0.47;0.47;;;;;;;;;;5003056;28;89193;-50
2023/03/30 09:20:28;;;;;;;1.43;0.97;;;;;;;;;;5003137;28;88494;-50
2023/03/30 09:22:58;;;;;;;0.83;0.47;;;;;;;;;;4997670;28;87122;-50
2023/03/30 09:25:29;;;;;;;4.03;1.03;;;;;;;;;;4991213;28;87111;-50
2023/03/30 09:27:59;;;;;;;2.57;0.80;;;;;;;;;;4992833;28;90111;-50
2023/03/30 09:30:30;;;;;;;0.77;0.57;;;;;;;;;;5001505;28;88768;-50
2023/03/30 09:32:59;;;;;;;0.43;0.43;;;;;;;;;;5002900;28;87031;-50
2023/03/30 09:35:35;;;;;;;0.53;0.53;;;;;;;;;;5001993;28;86863;-50
2023/03/30 09:38:03;;;;;;;1.80;0.60;;;;;;;;;;5001701;28;88371;-50
2023/03/30 09:40:38;;;;;;;0.30;0.30;;;;;;;;;;5001246;28;87666;-50
2023/03/30 09:43:09;;;;;;;1.63;0.83;;;;;;;;;;5000843;28;86982;-50
2023/03/30 09:45:37;;;;;;;1.80;1.07;;;;;;;;;;5010524;28;86321;-50
2023/03/30 09:48:07;;;;;;;0.90;0.70;;;;;;;;;;5022241;28;89111;-50
2023/03/30 09:50:37;;;;;;;6.13;0.77;;;;;;;;;;5009739;28;88629;-50
2023/03/30 09:53:06;;;;;;;1.93;1.23;;;;;;;;;;5002118;28;87789;-50
2023/03/30 09:55:35;;;;;;;1.67;0.90;;;;;;;;;;5002343;28;87070;-50
2023/03/30 09:58:16;;;;;;;1.00;0.50;;;;;;;;;;4993290;28;87063;-50
2023/03/30 10:00:44;;;;;;;1.77;0.67;;;;;;;;;;4994850;28;87936;-50
2023/03/30 10:03:19;;;;;;;0.87;0.70;;;;;;;;;;5002346;28;87058;-50
2023/03/30 10:05:50;;;;;;;3.63;0.93;;;;;;;;;;5001159;28;87021;-50
2023/03/30 10:08:19;;;;;;;3.83;0.40;;;;;;;;;;5002150;28;89130;-50
2023/03/30 10:10:53;;;;;;;5.23;0.40;;;;;;;;;;5002529;28;89931;-50
2023/03/30 10:13:25;;;;;;;1.43;0.60;;;;;;;;;;5002376;28;86999;-50
2023/03/30 10:15:53;;;;;;;1.30;0.43;;;;;;;;;;5002613;28;87088;-50
2023/03/30 10:18:24;;;;;;;4.33;1.03;;;;;;;;;;5001272;28;90224;-50
2023/03/30 10:20:52;;;;;;;0.53;0.43;;;;;;;;;;5001426;28;88783;-50
2023/03/30 10:23:23;;;;;;;3.23;0.70;;;;;;;;;;5002200;28;86913;-51
2023/03/30 10:25:51;;;;;;;0.40;0.30;;;;;;;;;;5001693;28;86954;-50
2023/03/30 10:28:20;;;;;;;0.43;0.43;;;;;;;;;;5001766;28;87005;-50
2023/03/30 10:30:54;;;;;;;2.57;0.87;;;;;;;;;;5001236;28;87814;-50
2023/03/30 10:33:22;;;;;;;2.70;0.90;;;;;;;;;;5001777;28;87070;-50
2023/03/30 10:35:52;;;;;;;3.00;0.80;;;;;;;;;;5001392;28;86344;-50
2023/03/30 10:38:20;;;;;;;2.90;0.83;;;;;;;;;;5001457;28;88012;-50
2023/03/30 10:40:49;;;;;;;4.77;0.60;;;;;;;;;;5001336;28;87779;-50
2023/03/30 10:43:18;;;;;;;0.43;0.43;;;;;;;;;;5001165;28;87943;-50
2023/03/30 10:45:47;;;;;;;1.17;0.80;;;;;;;;;;5001326;28;87727;-50
2023/03/30 10:48:24;;;;;;;3.10;0.80;;;;;;;;;;5001655;28;88846;-50
2023/03/30 10:50:53;;;;;;;1.17;0.70;;;;;;;;;;5000921;28;87914;-50
2023/03/30 10:53:26;;;;;;;0.63;0.60;;;;;;;;;;5002127;28;87065;-50
2023/03/30 10:55:56;;;;;;;1.57;0.50;;;;;;;;;;5001803;28;87072;-50
2023/03/30 10:58:27;;;;;;;3.53;1.13;;;;;;;;;;5001580;28;88091;-50
2023/03/30 11:01:07;;;;;;;3.20;0.70;;;;;;;;;;5001565;28;87904;-50
2023/03/30 11:03:37;;;;;;;1.80;0.80;;;;;;;;;;5001510;28;86968;-50
2023/03/30 11:06:07;;;;;;;1.03;0.53;;;;;;;;;;5000991;28;87068;-50
2023/03/30 11:08:35;;;;;;;2.10;0.70;;;;;;;;;;5000910;28;88694;-50
2023/03/30 11:11:04;;;;;;;3.80;1.00;;;;;;;;;;5001180;28;89984;-50
2023/03/30 11:13:33;;;;;;;0.63;0.53;;;;;;;;;;5001885;28;87054;-50
2023/03/30 11:16:02;;;;;;;1.90;0.83;;;;;;;;;;4990408;28;88383;-50
2023/03/30 11:18:33;;;;;;;0.30;0.30;;;;;;;;;;4981529;28;87046;-50
2023/03/30 11:21:03;;;;;;;1.20;0.70;;;;;;;;;;4991936;28;88918;-50
2023/03/30 11:23:34;;;;;;;1.60;0.87;;;;;;;;;;5001668;28;86958;-50
2023/03/30 11:26:03;;;;;;;0.73;0.73;;;;;;;;;;5001467;28;87520;-50
2023/03/30 11:28:36;;;;;;;1.10;0.57;;;;;;;;;;4989520;28;89261;-50
2023/03/30 11:31:07;;;;;;;5.20;0.80;;;;;;;;;;4992817;28;87824;-50
2023/03/30 11:33:36;;;;;;;4.17;1.23;;;;;;;;;;5004003;28;87889;-50
2023/03/30 11:36:07;;;;;;;5.50;0.60;;;;;;;;;;5004534;28;87011;-50
2023/03/30 11:38:40;;;;;;;3.73;0.80;;;;;;;;;;5004748;28;89254;-50
2023/03/30 11:41:10;;;;;;;2.87;0.67;;;;;;;;;;5004378;28;86883;-50
2023/03/30 11:43:39;;;;;;;1.37;0.63;;;;;;;;;;5004383;28;87054;-50
2023/03/30 11:46:07;;;;;;;2.03;0.63;;;;;;;;;;5004475;28;86998;-50
2023/03/30 11:48:55;;;;;;;3.77;0.80;;;;;;;;;;5004261;28;89257;-50
2023/03/30 11:51:29;;;;;;;1.87;1.03;;;;;;;;;;5004128;28;86672;-50
2023/03/30 11:53:58;;;;;;;2.47;0.97;;;;;;;;;;5004584;28;87303;-50
2023/03/30 11:56:28;;;;;;;1.67;0.63;;;;;;;;;;5004594;28;86990;-50
2023/03/30 11:59:03;;;;;;;1.27;0.80;;;;;;;;;;5003658;28;90087;-50
2023/03/30 12:01:46;;;;;;;0.53;0.50;;;;;;;;;;5003858;28;89907;-50
2023/03/30 12:04:15;;;;;;;1.30;0.50;;;;;;;;;;5001196;28;87003;-50
2023/03/30 12:06:47;;;;;;;3.03;0.80;;;;;;;;;;5003502;28;88172;-50
2023/03/30 12:09:23;;;;;;;2.37;0.70;;;;;;;;;;5004222;28;89300;-50
2023/03/30 12:11:52;;;;;;;4.07;0.90;;;;;;;;;;5004205;28;88947;-50
2023/03/30 12:14:26;;;;;;;0.70;0.50;;;;;;;;;;5004318;28;87119;-50
2023/03/30 12:16:55;;;;;;;0.83;0.50;;;;;;;;;;5003931;28;86249;-50
2023/03/30 12:19:24;;;;;;;2.07;0.60;;;;;;;;;;5004129;28;89173;-50
2023/03/30 12:21:54;;;;;;;3.00;0.70;;;;;;;;;;5003614;28;87616;-50
2023/03/30 12:24:24;;;;;;;5.67;1.30;;;;;;;;;;5003084;28;87909;-50
2023/03/30 12:26:52;;;;;;;2.00;0.50;;;;;;;;;;5003328;28;87111;-50
2023/03/30 12:29:23;;;;;;;1.90;1.10;;;;;;;;;;5003594;28;87762;-50
2023/03/30 12:32:05;;;;;;;1.13;0.83;;;;;;;;;;5003106;28;88259;-50
2023/03/30 12:34:35;;;;;;;0.70;0.50;;;;;;;;;;5003650;28;86762;-50
2023/03/30 12:37:08;;;;;;;2.73;1.00;;;;;;;;;;5003728;28;87057;-50
2023/03/30 12:39:43;;;;;;;0.60;0.43;;;;;;;;;;5003568;28;88075;-50
2023/03/30 12:42:25;;;;;;;1.70;0.63;;;;;;;;;;5003098;28;87825;-50
2023/03/30 12:45:12;;;;;;;2.13;0.83;;;;;;;;;;5004089;28;87038;-50
2023/03/30 12:47:53;;;;;;;2.27;0.53;;;;;;;;;;5003262;28;87454;-50
2023/03/30 12:50:28;;;;;;;6.90;1.67;;;;;;;;;;5002365;28;89035;-50
2023/03/30 12:53:05;;;;;;;0.83;0.83;;;;;;;;;;5003439;28;87295;-50
2023/03/30 12:55:35;;;;;;;2.27;0.70;;;;;;;;;;5003542;28;86954;-50
2023/03/30 12:58:10;;;;;;;2.03;0.83;;;;;;;;;;5003000;28;87176;-50
2023/03/30 13:00:44;;;;;;;2.07;0.77;;;;;;;;;;5002426;28;88291;-50
2023/03/30 13:03:19;;;;;;;1.30;0.60;;;;;;;;;;5003564;28;87750;-50
2023/03/30 13:05:50;;;;;;;7.13;0.80;;;;;;;;;;5003093;28;87069;-50
2023/03/30 13:08:20;;;;;;;1.23;0.50;;;;;;;;;;5004029;28;86373;-50
2023/03/30 13:10:49;;;;;;;0.80;0.70;;;;;;;;;;5003132;28;88330;-50
2023/03/30 13:13:18;;;;;;;0.97;0.63;;;;;;;;;;5003451;28;88900;-50
2023/03/30 13:15:47;;;;;;;1.13;0.60;;;;;;;;;;5002871;28;88884;-50
2023/03/30 13:18:26;;;;;;;2.47;1.03;;;;;;;;;;5002972;28;87019;-50
2023/03/30 13:21:04;;;;;;;5.80;0.93;;;;;;;;;;5002758;28;89180;-50
2023/03/30 13:23:36;;;;;;;5.43;1.63;;;;;;;;;;5002431;28;87045;-50
2023/03/30 13:26:06;;;;;;;1.23;0.90;;;;;;;;;;5002353;28;86971;-50
2023/03/30 13:28:36;;;;;;;2.63;0.73;;;;;;;;;;4996782;28;86932;-50
2023/03/30 13:31:07;;;;;;;5.00;0.67;;;;;;;;;;4986757;28;87144;-50
2023/03/30 13:33:36;;;;;;;0.53;0.47;;;;;;;;;;5003070;28;88942;-50
2023/03/30 13:36:05;;;;;;;1.40;0.83;;;;;;;;;;5002601;28;87030;-50
2023/03/30 13:38:43;;;;;;;1.60;0.40;;;;;;;;;;5003090;28;87082;-50
2023/03/30 13:41:14;;;;;;;1.03;0.57;;;;;;;;;;5001811;28;89222;-50
2023/03/30 13:43:49;;;;;;;0.80;0.50;;;;;;;;;;5002194;28;89896;-50
2023/03/30 13:46:19;;;;;;;1.33;0.60;;;;;;;;;;5002441;28;87119;-50
2023/03/30 13:48:51;;;;;;;1.43;0.70;;;;;;;;;;5002760;28;87072;-50
2023/03/30 13:51:20;;;;;;;5.93;1.20;;;;;;;;;;5002076;28;89232;-50
2023/03/30 13:53:50;;;;;;;1.13;0.60;;;;;;;;;;5001519;28;87961;-50
2023/03/30 13:56:18;;;;;;;4.60;0.47;;;;;;;;;;5002100;28;86922;-52
2023/03/30 13:58:48;;;;;;;1.07;0.43;;;;;;;;;;4995709;28;86238;-50
2023/03/30 14:01:17;;;;;;;1.10;0.60;;;;;;;;;;4985817;28;89162;-50
2023/03/30 14:03:46;;;;;;;2.10;0.40;;;;;;;;;;5001926;28;87951;-51
2023/03/30 14:06:16;;;;;;;0.40;0.40;;;;;;;;;;5000599;28;89862;-50
2023/03/30 14:08:46;;;;;;;2.43;0.60;;;;;;;;;;5002640;28;87026;-50
2023/03/30 14:11:17;;;;;;;0.43;0.43;;;;;;;;;;5001815;28;88090;-50
2023/03/30 14:13:45;;;;;;;1.80;0.50;;;;;;;;;;5002075;28;87961;-50
2023/03/30 14:16:14;;;;;;;0.90;0.77;;;;;;;;;;5001910;28;87139;-50
2023/03/30 14:18:42;;;;;;;1.60;0.90;;;;;;;;;;5002389;28;87457;-50
2023/03/30 14:21:11;;;;;;;3.83;1.17;;;;;;;;;;5001660;28;88099;-50
2023/03/30 14:23:40;;;;;;;2.50;1.07;;;;;;;;;;5002117;28;88753;-50
2023/03/30 14:26:13;;;;;;;2.53;1.03;;;;;;;;;;5001005;28;87015;-50
2023/03/30 14:28:43;;;;;;;0.53;0.53;;;;;;;;;;5001856;28;87050;-50
2023/03/30 14:31:12;;;;;;;1.97;0.40;;;;;;;;;;5000795;28;90234;-50
2023/03/30 14:33:41;;;;;;;2.40;0.80;;;;;;;;;;5001580;28;88527;-50
2023/03/30 14:36:11;;;;;;;1.50;0.83;;;;;;;;;;5001550;28;86863;-50
2023/03/30 14:38:39;;;;;;;2.37;1.47;;;;;;;;;;5001911;28;86909;-50
2023/03/30 14:41:08;;;;;;;3.00;1.07;;;;;;;;;;5001551;28;89153;-50
2023/03/30 14:43:38;;;;;;;2.43;0.80;;;;;;;;;;5001586;28;88838;-50
2023/03/30 14:46:08;;;;;;;1.13;0.43;;;;;;;;;;5001476;28;88185;-50
2023/03/30 14:48:40;;;;;;;1.70;0.83;;;;;;;;;;5002332;28;86297;-50
2023/03/30 14:51:20;;;;;;;0.97;0.53;;;;;;;;;;5001411;28;86967;-50
2023/03/30 14:53:48;;;;;;;2.80;0.90;;;;;;;;;;5001750;28;87655;-50
2023/03/30 14:56:17;;;;;;;1.60;0.63;;;;;;;;;;5000774;28;88114;-50
2023/03/30 14:58:46;;;;;;;1.27;0.90;;;;;;;;;;5001174;28;87174;-50
2023/03/30 15:01:16;;;;;;;3.63;0.73;;;;;;;;;;5000885;28;88288;-50